sensor_id;sensor_type;location;lat;lon;timestamp;P1;durP1;ratioP1;P2;durP2;ratioP2
34673;SDS011;20879;55.668;37.858;2023-05-10T00:01:10;9.55;;;4.68;;
34673;SDS011;20879;55.668;37.858;2023-05-10T00:03:39;10.70;;;5.00;;
34673;SDS011;20879;55.668;37.858;2023-05-10T00:06:09;9.60;;;4.82;;
34673;SDS011;20879;55.668;37.858;2023-05-10T00:08:40;9.45;;;5.10;;
34673;SDS011;20879;55.668;37.858;2023-05-10T00:11:15;9.98;;;5.03;;
34673;SDS011;20879;55.668;37.858;2023-05-10T00:13:47;9.63;;;4.63;;
34673;SDS011;20879;55.668;37.858;2023-05-10T00:16:17;7.95;;;4.93;;
34673;SDS011;20879;55.668;37.858;2023-05-10T00:18:47;11.30;;;4.90;;
34673;SDS011;20879;55.668;37.858;2023-05-10T00:21:16;7.93;;;4.90;;
34673;SDS011;20879;55.668;37.858;2023-05-10T00:23:47;9.40;;;4.97;;
34673;SDS011;20879;55.668;37.858;2023-05-10T00:26:17;9.50;;;5.70;;
34673;SDS011;20879;55.668;37.858;2023-05-10T00:28:50;9.45;;;4.75;;
34673;SDS011;20879;55.668;37.858;2023-05-10T00:31:20;10.25;;;5.15;;
34673;SDS011;20879;55.668;37.858;2023-05-10T00:33:49;12.30;;;4.60;;
34673;SDS011;20879;55.668;37.858;2023-05-10T00:36:19;10.00;;;5.10;;
34673;SDS011;20879;55.668;37.858;2023-05-10T00:38:51;8.32;;;4.68;;
34673;SDS011;20879;55.668;37.858;2023-05-10T00:41:25;10.98;;;6.10;;
34673;SDS011;20879;55.668;37.858;2023-05-10T00:43:56;12.50;;;6.80;;
34673;SDS011;20879;55.668;37.858;2023-05-10T00:46:26;13.50;;;6.25;;
34673;SDS011;20879;55.668;37.858;2023-05-10T00:48:55;14.75;;;7.57;;
34673;SDS011;20879;55.668;37.858;2023-05-10T00:51:25;13.63;;;8.50;;
34673;SDS011;20879;55.668;37.858;2023-05-10T00:53:56;17.75;;;8.38;;
34673;SDS011;20879;55.668;37.858;2023-05-10T00:56:32;11.57;;;7.25;;
34673;SDS011;20879;55.668;37.858;2023-05-10T00:59:01;12.90;;;7.38;;
34673;SDS011;20879;55.668;37.858;2023-05-10T01:01:31;16.80;;;10.10;;
34673;SDS011;20879;55.668;37.858;2023-05-10T01:04:01;12.15;;;7.13;;
34673;SDS011;20879;55.668;37.858;2023-05-10T01:06:31;13.55;;;7.00;;
34673;SDS011;20879;55.668;37.858;2023-05-10T01:09:12;13.13;;;6.72;;
34673;SDS011;20879;55.668;37.858;2023-05-10T01:11:43;13.27;;;5.85;;
34673;SDS011;20879;55.668;37.858;2023-05-10T01:14:13;12.75;;;5.63;;
34673;SDS011;20879;55.668;37.858;2023-05-10T01:16:51;10.07;;;5.32;;
34673;SDS011;20879;55.668;37.858;2023-05-10T01:19:22;10.10;;;6.15;;
34673;SDS011;20879;55.668;37.858;2023-05-10T01:22:01;13.93;;;7.20;;
34673;SDS011;20879;55.668;37.858;2023-05-10T01:31:03;18.67;;;8.70;;
34673;SDS011;20879;55.668;37.858;2023-05-10T01:33:57;19.95;;;8.88;;
34673;SDS011;20879;55.668;37.858;2023-05-10T01:36:38;15.10;;;7.88;;
34673;SDS011;20879;55.668;37.858;2023-05-10T01:39:15;17.08;;;7.63;;
34673;SDS011;20879;55.668;37.858;2023-05-10T01:41:55;10.68;;;7.30;;
34673;SDS011;20879;55.668;37.858;2023-05-10T01:44:39;9.73;;;6.32;;
34673;SDS011;20879;55.668;37.858;2023-05-10T01:47:21;10.35;;;6.13;;
34673;SDS011;20879;55.668;37.858;2023-05-10T01:50:01;13.55;;;6.85;;
34673;SDS011;20879;55.668;37.858;2023-05-10T01:52:38;10.90;;;6.05;;
34673;SDS011;20879;55.668;37.858;2023-05-10T01:55:13;9.80;;;5.43;;
34673;SDS011;20879;55.668;37.858;2023-05-10T01:57:51;14.95;;;6.20;;
34673;SDS011;20879;55.668;37.858;2023-05-10T02:00:25;15.60;;;5.93;;
34673;SDS011;20879;55.668;37.858;2023-05-10T02:02:57;13.15;;;6.15;;
34673;SDS011;20879;55.668;37.858;2023-05-10T02:08:06;7.22;;;4.97;;
34673;SDS011;20879;55.668;37.858;2023-05-10T02:10:37;7.28;;;4.47;;
34673;SDS011;20879;55.668;37.858;2023-05-10T02:13:18;12.52;;;5.78;;
34673;SDS011;20879;55.668;37.858;2023-05-10T02:15:48;11.40;;;5.97;;
34673;SDS011;20879;55.668;37.858;2023-05-10T02:18:20;11.30;;;5.80;;
34673;SDS011;20879;55.668;37.858;2023-05-10T02:23:29;9.73;;;5.63;;
34673;SDS011;20879;55.668;37.858;2023-05-10T02:26:00;11.13;;;5.03;;
34673;SDS011;20879;55.668;37.858;2023-05-10T02:28:32;10.95;;;4.95;;
34673;SDS011;20879;55.668;37.858;2023-05-10T02:31:09;15.65;;;5.50;;
34673;SDS011;20879;55.668;37.858;2023-05-10T02:33:39;10.77;;;5.32;;
34673;SDS011;20879;55.668;37.858;2023-05-10T02:36:17;8.88;;;4.00;;
34673;SDS011;20879;55.668;37.858;2023-05-10T02:38:48;12.15;;;4.65;;
34673;SDS011;20879;55.668;37.858;2023-05-10T02:41:22;10.73;;;4.20;;
34673;SDS011;20879;55.668;37.858;2023-05-10T02:43:59;8.05;;;3.92;;
34673;SDS011;20879;55.668;37.858;2023-05-10T02:46:31;9.20;;;4.00;;
34673;SDS011;20879;55.668;37.858;2023-05-10T02:49:06;7.82;;;3.80;;
34673;SDS011;20879;55.668;37.858;2023-05-10T02:51:39;9.20;;;4.82;;
34673;SDS011;20879;55.668;37.858;2023-05-10T02:54:14;9.55;;;4.30;;
34673;SDS011;20879;55.668;37.858;2023-05-10T02:56:56;8.18;;;4.13;;
34673;SDS011;20879;55.668;37.858;2023-05-10T02:59:28;16.20;;;4.65;;
34673;SDS011;20879;55.668;37.858;2023-05-10T03:01:57;8.15;;;4.15;;
34673;SDS011;20879;55.668;37.858;2023-05-10T03:04:27;9.35;;;4.60;;
34673;SDS011;20879;55.668;37.858;2023-05-10T03:06:59;9.68;;;4.70;;
34673;SDS011;20879;55.668;37.858;2023-05-10T03:09:34;10.23;;;4.70;;
34673;SDS011;20879;55.668;37.858;2023-05-10T03:12:04;9.88;;;4.70;;
34673;SDS011;20879;55.668;37.858;2023-05-10T03:14:49;8.02;;;4.40;;
34673;SDS011;20879;55.668;37.858;2023-05-10T03:17:28;10.50;;;4.95;;
34673;SDS011;20879;55.668;37.858;2023-05-10T03:20:02;9.10;;;4.82;;
34673;SDS011;20879;55.668;37.858;2023-05-10T03:22:40;10.80;;;4.88;;
34673;SDS011;20879;55.668;37.858;2023-05-10T03:25:15;11.88;;;5.38;;
34673;SDS011;20879;55.668;37.858;2023-05-10T03:27:47;7.85;;;4.55;;
34673;SDS011;20879;55.668;37.858;2023-05-10T03:30:16;9.85;;;4.80;;
34673;SDS011;20879;55.668;37.858;2023-05-10T03:32:52;10.27;;;4.97;;
34673;SDS011;20879;55.668;37.858;2023-05-10T03:35:21;11.75;;;5.50;;
34673;SDS011;20879;55.668;37.858;2023-05-10T03:37:58;11.98;;;5.20;;
34673;SDS011;20879;55.668;37.858;2023-05-10T03:40:45;11.90;;;5.47;;
34673;SDS011;20879;55.668;37.858;2023-05-10T03:43:21;10.35;;;4.78;;
34673;SDS011;20879;55.668;37.858;2023-05-10T03:48:27;12.85;;;5.40;;
34673;SDS011;20879;55.668;37.858;2023-05-10T03:50:56;10.15;;;4.90;;
34673;SDS011;20879;55.668;37.858;2023-05-10T03:53:33;16.23;;;5.82;;
34673;SDS011;20879;55.668;37.858;2023-05-10T03:56:03;11.82;;;5.43;;
34673;SDS011;20879;55.668;37.858;2023-05-10T03:58:33;10.70;;;4.80;;
34673;SDS011;20879;55.668;37.858;2023-05-10T04:01:07;11.73;;;5.53;;
34673;SDS011;20879;55.668;37.858;2023-05-10T04:03:42;9.77;;;4.47;;
34673;SDS011;20879;55.668;37.858;2023-05-10T04:06:11;15.45;;;4.80;;
34673;SDS011;20879;55.668;37.858;2023-05-10T04:08:44;10.68;;;5.03;;
34673;SDS011;20879;55.668;37.858;2023-05-10T04:13:58;14.52;;;5.35;;
34673;SDS011;20879;55.668;37.858;2023-05-10T04:16:28;11.75;;;4.90;;
34673;SDS011;20879;55.668;37.858;2023-05-10T04:18:57;11.57;;;5.35;;
34673;SDS011;20879;55.668;37.858;2023-05-10T04:21:32;8.77;;;4.95;;
34673;SDS011;20879;55.668;37.858;2023-05-10T04:24:04;8.30;;;4.72;;
34673;SDS011;20879;55.668;37.858;2023-05-10T04:26:34;9.55;;;4.40;;
34673;SDS011;20879;55.668;37.858;2023-05-10T04:29:03;9.32;;;4.70;;
34673;SDS011;20879;55.668;37.858;2023-05-10T04:31:33;11.82;;;4.70;;
34673;SDS011;20879;55.668;37.858;2023-05-10T04:34:02;12.02;;;4.82;;
34673;SDS011;20879;55.668;37.858;2023-05-10T04:36:32;10.20;;;5.03;;
34673;SDS011;20879;55.668;37.858;2023-05-10T04:39:05;9.45;;;4.63;;
34673;SDS011;20879;55.668;37.858;2023-05-10T04:41:38;9.48;;;4.30;;
34673;SDS011;20879;55.668;37.858;2023-05-10T04:44:07;9.05;;;4.70;;
34673;SDS011;20879;55.668;37.858;2023-05-10T04:46:37;9.32;;;4.38;;
34673;SDS011;20879;55.668;37.858;2023-05-10T04:51:52;11.48;;;4.53;;
34673;SDS011;20879;55.668;37.858;2023-05-10T04:54:33;8.60;;;4.07;;
34673;SDS011;20879;55.668;37.858;2023-05-10T04:57:10;8.38;;;3.95;;
34673;SDS011;20879;55.668;37.858;2023-05-10T04:59:40;11.68;;;4.15;;
34673;SDS011;20879;55.668;37.858;2023-05-10T05:02:09;9.43;;;4.15;;
34673;SDS011;20879;55.668;37.858;2023-05-10T05:04:39;10.10;;;4.30;;
34673;SDS011;20879;55.668;37.858;2023-05-10T05:07:13;8.68;;;3.92;;
34673;SDS011;20879;55.668;37.858;2023-05-10T05:09:45;13.40;;;4.28;;
34673;SDS011;20879;55.668;37.858;2023-05-10T05:12:19;9.90;;;4.32;;
34673;SDS011;20879;55.668;37.858;2023-05-10T05:14:48;9.05;;;3.40;;
34673;SDS011;20879;55.668;37.858;2023-05-10T05:17:18;8.23;;;2.85;;
34673;SDS011;20879;55.668;37.858;2023-05-10T05:19:53;5.22;;;3.15;;
34673;SDS011;20879;55.668;37.858;2023-05-10T05:22:23;7.03;;;3.58;;
34673;SDS011;20879;55.668;37.858;2023-05-10T05:24:56;4.40;;;2.78;;
34673;SDS011;20879;55.668;37.858;2023-05-10T05:27:28;6.05;;;3.75;;
34673;SDS011;20879;55.668;37.858;2023-05-10T05:29:57;8.73;;;3.00;;
34673;SDS011;20879;55.668;37.858;2023-05-10T05:32:33;6.50;;;3.13;;
34673;SDS011;20879;55.668;37.858;2023-05-10T05:35:03;11.10;;;3.47;;
34673;SDS011;20879;55.668;37.858;2023-05-10T05:37:38;6.90;;;2.67;;
34673;SDS011;20879;55.668;37.858;2023-05-10T05:40:11;7.28;;;2.97;;
34673;SDS011;20879;55.668;37.858;2023-05-10T05:42:42;7.57;;;2.92;;
34673;SDS011;20879;55.668;37.858;2023-05-10T05:45:12;7.47;;;2.90;;
34673;SDS011;20879;55.668;37.858;2023-05-10T05:47:42;5.68;;;2.75;;
34673;SDS011;20879;55.668;37.858;2023-05-10T05:50:17;6.95;;;2.40;;
34673;SDS011;20879;55.668;37.858;2023-05-10T05:52:51;7.03;;;2.85;;
34673;SDS011;20879;55.668;37.858;2023-05-10T05:55:22;4.90;;;2.58;;
34673;SDS011;20879;55.668;37.858;2023-05-10T05:57:52;5.15;;;2.42;;
34673;SDS011;20879;55.668;37.858;2023-05-10T06:00:27;7.82;;;2.70;;
34673;SDS011;20879;55.668;37.858;2023-05-10T06:02:56;8.98;;;2.42;;
34673;SDS011;20879;55.668;37.858;2023-05-10T06:05:26;10.57;;;2.53;;
34673;SDS011;20879;55.668;37.858;2023-05-10T06:07:55;5.10;;;2.20;;
34673;SDS011;20879;55.668;37.858;2023-05-10T06:10:27;5.20;;;2.38;;
34673;SDS011;20879;55.668;37.858;2023-05-10T06:15:26;4.43;;;2.20;;
34673;SDS011;20879;55.668;37.858;2023-05-10T06:17:56;4.55;;;2.22;;
34673;SDS011;20879;55.668;37.858;2023-05-10T06:20:25;6.20;;;2.28;;
34673;SDS011;20879;55.668;37.858;2023-05-10T06:22:54;9.02;;;2.30;;
34673;SDS011;20879;55.668;37.858;2023-05-10T06:25:31;7.45;;;2.50;;
34673;SDS011;20879;55.668;37.858;2023-05-10T06:28:00;5.47;;;2.50;;
34673;SDS011;20879;55.668;37.858;2023-05-10T06:30:30;6.70;;;2.72;;
34673;SDS011;20879;55.668;37.858;2023-05-10T06:32:59;7.25;;;3.22;;
34673;SDS011;20879;55.668;37.858;2023-05-10T06:35:29;5.40;;;2.17;;
34673;SDS011;20879;55.668;37.858;2023-05-10T06:37:59;7.13;;;2.13;;
34673;SDS011;20879;55.668;37.858;2023-05-10T06:40:31;6.68;;;2.25;;
34673;SDS011;20879;55.668;37.858;2023-05-10T06:43:00;4.82;;;2.08;;
34673;SDS011;20879;55.668;37.858;2023-05-10T06:45:30;6.32;;;2.17;;
34673;SDS011;20879;55.668;37.858;2023-05-10T06:48:05;6.43;;;2.00;;
34673;SDS011;20879;55.668;37.858;2023-05-10T06:50:34;5.13;;;2.38;;
34673;SDS011;20879;55.668;37.858;2023-05-10T06:53:04;6.05;;;2.08;;
34673;SDS011;20879;55.668;37.858;2023-05-10T06:55:35;5.05;;;1.85;;
34673;SDS011;20879;55.668;37.858;2023-05-10T06:58:05;4.07;;;1.67;;
34673;SDS011;20879;55.668;37.858;2023-05-10T07:00:34;7.20;;;2.13;;
34673;SDS011;20879;55.668;37.858;2023-05-10T07:03:06;6.95;;;1.88;;
34673;SDS011;20879;55.668;37.858;2023-05-10T07:05:36;6.28;;;1.92;;
34673;SDS011;20879;55.668;37.858;2023-05-10T07:08:11;6.78;;;1.70;;
34673;SDS011;20879;55.668;37.858;2023-05-10T07:10:42;2.63;;;1.63;;
34673;SDS011;20879;55.668;37.858;2023-05-10T07:13:12;4.45;;;1.88;;
34673;SDS011;20879;55.668;37.858;2023-05-10T07:15:41;2.00;;;1.20;;
34673;SDS011;20879;55.668;37.858;2023-05-10T07:18:11;5.03;;;1.73;;
34673;SDS011;20879;55.668;37.858;2023-05-10T07:20:40;5.72;;;1.88;;
34673;SDS011;20879;55.668;37.858;2023-05-10T07:23:10;4.07;;;1.58;;
34673;SDS011;20879;55.668;37.858;2023-05-10T07:25:39;6.35;;;2.00;;
34673;SDS011;20879;55.668;37.858;2023-05-10T07:28:13;5.10;;;1.60;;
34673;SDS011;20879;55.668;37.858;2023-05-10T07:30:50;2.63;;;1.45;;
34673;SDS011;20879;55.668;37.858;2023-05-10T07:33:20;5.70;;;1.50;;
34673;SDS011;20879;55.668;37.858;2023-05-10T07:35:49;2.38;;;1.40;;
34673;SDS011;20879;55.668;37.858;2023-05-10T07:38:19;2.38;;;1.50;;
34673;SDS011;20879;55.668;37.858;2023-05-10T07:40:50;5.28;;;1.55;;
34673;SDS011;20879;55.668;37.858;2023-05-10T07:43:20;6.45;;;1.88;;
34673;SDS011;20879;55.668;37.858;2023-05-10T07:45:50;3.95;;;1.40;;
34673;SDS011;20879;55.668;37.858;2023-05-10T07:48:27;3.00;;;1.80;;
34673;SDS011;20879;55.668;37.858;2023-05-10T07:50:57;3.17;;;1.50;;
34673;SDS011;20879;55.668;37.858;2023-05-10T07:53:32;3.33;;;1.30;;
34673;SDS011;20879;55.668;37.858;2023-05-10T07:56:19;6.72;;;1.70;;
34673;SDS011;20879;55.668;37.858;2023-05-10T07:58:51;2.13;;;1.27;;
34673;SDS011;20879;55.668;37.858;2023-05-10T08:01:20;4.13;;;1.42;;
34673;SDS011;20879;55.668;37.858;2023-05-10T08:03:55;3.13;;;1.50;;
34673;SDS011;20879;55.668;37.858;2023-05-10T08:06:25;1.95;;;1.30;;
34673;SDS011;20879;55.668;37.858;2023-05-10T08:08:56;3.72;;;1.70;;
34673;SDS011;20879;55.668;37.858;2023-05-10T08:11:27;11.05;;;2.70;;
34673;SDS011;20879;55.668;37.858;2023-05-10T08:13:59;5.88;;;1.60;;
34673;SDS011;20879;55.668;37.858;2023-05-10T08:16:28;3.25;;;1.45;;
34673;SDS011;20879;55.668;37.858;2023-05-10T08:18:59;3.50;;;1.70;;
34673;SDS011;20879;55.668;37.858;2023-05-10T08:21:28;1.88;;;1.33;;
34673;SDS011;20879;55.668;37.858;2023-05-10T08:24:03;2.40;;;1.60;;
34673;SDS011;20879;55.668;37.858;2023-05-10T08:26:35;3.70;;;1.50;;
34673;SDS011;20879;55.668;37.858;2023-05-10T08:31:34;2.80;;;1.50;;
34673;SDS011;20879;55.668;37.858;2023-05-10T08:34:03;2.47;;;1.48;;
34673;SDS011;20879;55.668;37.858;2023-05-10T08:36:33;3.92;;;1.50;;
34673;SDS011;20879;55.668;37.858;2023-05-10T08:39:03;1.90;;;1.20;;
34673;SDS011;20879;55.668;37.858;2023-05-10T08:41:44;2.05;;;1.40;;
34673;SDS011;20879;55.668;37.858;2023-05-10T08:44:17;4.28;;;1.58;;
34673;SDS011;20879;55.668;37.858;2023-05-10T08:46:47;3.10;;;1.45;;
34673;SDS011;20879;55.668;37.858;2023-05-10T08:49:22;3.20;;;1.60;;
34673;SDS011;20879;55.668;37.858;2023-05-10T08:52:00;6.80;;;1.77;;
34673;SDS011;20879;55.668;37.858;2023-05-10T08:54:38;1.67;;;1.02;;
34673;SDS011;20879;55.668;37.858;2023-05-10T08:57:11;1.77;;;1.05;;
34673;SDS011;20879;55.668;37.858;2023-05-10T08:59:46;1.50;;;1.10;;
34673;SDS011;20879;55.668;37.858;2023-05-10T09:02:18;2.08;;;1.20;;
34673;SDS011;20879;55.668;37.858;2023-05-10T09:04:55;2.72;;;1.15;;
34673;SDS011;20879;55.668;37.858;2023-05-10T09:07:25;1.75;;;1.13;;
34673;SDS011;20879;55.668;37.858;2023-05-10T09:10:00;3.05;;;1.40;;
34673;SDS011;20879;55.668;37.858;2023-05-10T09:12:32;4.32;;;1.30;;
34673;SDS011;20879;55.668;37.858;2023-05-10T09:15:02;7.07;;;1.60;;
34673;SDS011;20879;55.668;37.858;2023-05-10T09:17:32;6.20;;;1.60;;
34673;SDS011;20879;55.668;37.858;2023-05-10T09:20:03;3.90;;;1.73;;
34673;SDS011;20879;55.668;37.858;2023-05-10T09:22:39;1.80;;;1.48;;
34673;SDS011;20879;55.668;37.858;2023-05-10T09:25:09;4.55;;;1.38;;
34673;SDS011;20879;55.668;37.858;2023-05-10T09:27:48;4.60;;;1.70;;
34673;SDS011;20879;55.668;37.858;2023-05-10T09:30:23;3.13;;;1.55;;
34673;SDS011;20879;55.668;37.858;2023-05-10T09:32:59;5.55;;;1.48;;
34673;SDS011;20879;55.668;37.858;2023-05-10T09:35:31;3.33;;;1.47;;
34673;SDS011;20879;55.668;37.858;2023-05-10T09:38:02;4.78;;;1.80;;
34673;SDS011;20879;55.668;37.858;2023-05-10T09:40:32;5.25;;;1.83;;
34673;SDS011;20879;55.668;37.858;2023-05-10T09:43:06;3.10;;;1.50;;
34673;SDS011;20879;55.668;37.858;2023-05-10T09:45:37;3.08;;;1.67;;
34673;SDS011;20879;55.668;37.858;2023-05-10T09:48:07;2.28;;;1.42;;
34673;SDS011;20879;55.668;37.858;2023-05-10T09:50:37;2.28;;;1.60;;
34673;SDS011;20879;55.668;37.858;2023-05-10T09:55:44;3.15;;;1.88;;
34673;SDS011;20879;55.668;37.858;2023-05-10T09:58:17;5.07;;;1.60;;
34673;SDS011;20879;55.668;37.858;2023-05-10T10:00:47;2.30;;;1.27;;
34673;SDS011;20879;55.668;37.858;2023-05-10T10:03:19;2.47;;;1.65;;
34673;SDS011;20879;55.668;37.858;2023-05-10T10:05:55;3.10;;;1.67;;
34673;SDS011;20879;55.668;37.858;2023-05-10T10:08:26;3.05;;;1.63;;
34673;SDS011;20879;55.668;37.858;2023-05-10T10:10:56;1.70;;;1.60;;
34673;SDS011;20879;55.668;37.858;2023-05-10T10:13:27;2.03;;;1.38;;
34673;SDS011;20879;55.668;37.858;2023-05-10T10:16:08;4.10;;;1.83;;
34673;SDS011;20879;55.668;37.858;2023-05-10T10:18:38;6.32;;;1.70;;
34673;SDS011;20879;55.668;37.858;2023-05-10T10:21:08;5.30;;;1.75;;
34673;SDS011;20879;55.668;37.858;2023-05-10T10:23:41;6.55;;;1.92;;
34673;SDS011;20879;55.668;37.858;2023-05-10T10:26:12;2.85;;;1.65;;
34673;SDS011;20879;55.668;37.858;2023-05-10T10:28:45;3.95;;;1.70;;
34673;SDS011;20879;55.668;37.858;2023-05-10T10:31:23;5.03;;;1.50;;
34673;SDS011;20879;55.668;37.858;2023-05-10T10:34:05;2.45;;;1.48;;
34673;SDS011;20879;55.668;37.858;2023-05-10T10:39:20;2.58;;;1.90;;
34673;SDS011;20879;55.668;37.858;2023-05-10T10:41:56;7.20;;;2.05;;
34673;SDS011;20879;55.668;37.858;2023-05-10T10:44:40;2.63;;;1.60;;
34673;SDS011;20879;55.668;37.858;2023-05-10T10:47:22;1.90;;;1.67;;
34673;SDS011;20879;55.668;37.858;2023-05-10T10:50:03;5.00;;;1.73;;
34673;SDS011;20879;55.668;37.858;2023-05-10T10:52:39;3.30;;;1.80;;
34673;SDS011;20879;55.668;37.858;2023-05-10T10:55:10;8.57;;;2.10;;
34673;SDS011;20879;55.668;37.858;2023-05-10T10:57:47;5.00;;;2.00;;
34673;SDS011;20879;55.668;37.858;2023-05-10T11:05:41;3.35;;;1.67;;
34673;SDS011;20879;55.668;37.858;2023-05-10T11:08:13;5.00;;;1.87;;
34673;SDS011;20879;55.668;37.858;2023-05-10T11:10:50;3.72;;;1.70;;
34673;SDS011;20879;55.668;37.858;2023-05-10T11:13:28;2.47;;;2.00;;
34673;SDS011;20879;55.668;37.858;2023-05-10T11:16:09;3.97;;;2.10;;
34673;SDS011;20879;55.668;37.858;2023-05-10T11:18:57;2.38;;;1.63;;
34673;SDS011;20879;55.668;37.858;2023-05-10T11:21:30;4.20;;;1.70;;
34673;SDS011;20879;55.668;37.858;2023-05-10T11:24:00;4.03;;;1.80;;
34673;SDS011;20879;55.668;37.858;2023-05-10T11:26:34;5.70;;;1.88;;
34673;SDS011;20879;55.668;37.858;2023-05-10T11:29:04;4.28;;;1.80;;
34673;SDS011;20879;55.668;37.858;2023-05-10T11:31:38;3.17;;;1.70;;
34673;SDS011;20879;55.668;37.858;2023-05-10T11:34:22;4.80;;;2.10;;
34673;SDS011;20879;55.668;37.858;2023-05-10T11:36:59;3.08;;;1.70;;
34673;SDS011;20879;55.668;37.858;2023-05-10T11:39:28;2.70;;;1.70;;
34673;SDS011;20879;55.668;37.858;2023-05-10T11:42:00;2.42;;;1.60;;
34673;SDS011;20879;55.668;37.858;2023-05-10T11:44:34;5.53;;;1.80;;
34673;SDS011;20879;55.668;37.858;2023-05-10T11:47:11;2.92;;;1.73;;
34673;SDS011;20879;55.668;37.858;2023-05-10T11:49:43;4.80;;;2.00;;
34673;SDS011;20879;55.668;37.858;2023-05-10T11:52:18;4.40;;;2.00;;
34673;SDS011;20879;55.668;37.858;2023-05-10T11:57:30;3.25;;;1.90;;
34673;SDS011;20879;55.668;37.858;2023-05-10T12:00:00;4.75;;;1.80;;
34673;SDS011;20879;55.668;37.858;2023-05-10T12:02:35;4.25;;;1.90;;
34673;SDS011;20879;55.668;37.858;2023-05-10T12:05:07;2.65;;;1.63;;
34673;SDS011;20879;55.668;37.858;2023-05-10T12:07:38;2.25;;;1.58;;
34673;SDS011;20879;55.668;37.858;2023-05-10T12:10:10;3.15;;;1.80;;
34673;SDS011;20879;55.668;37.858;2023-05-10T12:12:42;4.13;;;1.65;;
34673;SDS011;20879;55.668;37.858;2023-05-10T12:15:17;3.03;;;1.63;;
34673;SDS011;20879;55.668;37.858;2023-05-10T12:17:50;1.83;;;1.52;;
34673;SDS011;20879;55.668;37.858;2023-05-10T12:20:27;1.75;;;1.60;;
34673;SDS011;20879;55.668;37.858;2023-05-10T12:22:57;7.60;;;1.95;;
34673;SDS011;20879;55.668;37.858;2023-05-10T12:25:35;4.50;;;1.90;;
34673;SDS011;20879;55.668;37.858;2023-05-10T12:28:06;4.30;;;1.50;;
34673;SDS011;20879;55.668;37.858;2023-05-10T12:30:37;2.78;;;1.60;;
34673;SDS011;20879;55.668;37.858;2023-05-10T12:33:09;2.70;;;1.70;;
34673;SDS011;20879;55.668;37.858;2023-05-10T12:35:44;4.93;;;1.80;;
34673;SDS011;20879;55.668;37.858;2023-05-10T12:38:24;3.22;;;1.60;;
34673;SDS011;20879;55.668;37.858;2023-05-10T12:40:58;2.90;;;1.60;;
34673;SDS011;20879;55.668;37.858;2023-05-10T12:43:31;3.22;;;1.73;;
34673;SDS011;20879;55.668;37.858;2023-05-10T12:51:30;5.47;;;1.95;;
34673;SDS011;20879;55.668;37.858;2023-05-10T12:54:04;3.83;;;1.90;;
34673;SDS011;20879;55.668;37.858;2023-05-10T12:56:33;4.43;;;1.98;;
34673;SDS011;20879;55.668;37.858;2023-05-10T12:59:03;4.95;;;2.00;;
34673;SDS011;20879;55.668;37.858;2023-05-10T13:01:33;3.20;;;2.10;;
34673;SDS011;20879;55.668;37.858;2023-05-10T13:04:07;2.15;;;1.70;;
34673;SDS011;20879;55.668;37.858;2023-05-10T13:06:39;3.17;;;1.88;;
34673;SDS011;20879;55.668;37.858;2023-05-10T13:09:14;3.28;;;1.90;;
34673;SDS011;20879;55.668;37.858;2023-05-10T13:11:43;5.25;;;2.20;;
34673;SDS011;20879;55.668;37.858;2023-05-10T13:14:14;4.80;;;2.25;;
34673;SDS011;20879;55.668;37.858;2023-05-10T13:16:45;4.43;;;1.70;;
34673;SDS011;20879;55.668;37.858;2023-05-10T13:19:17;2.22;;;1.83;;
34673;SDS011;20879;55.668;37.858;2023-05-10T13:21:49;5.20;;;1.80;;
34673;SDS011;20879;55.668;37.858;2023-05-10T13:24:18;5.20;;;1.80;;
34673;SDS011;20879;55.668;37.858;2023-05-10T13:26:54;2.63;;;1.52;;
34673;SDS011;20879;55.668;37.858;2023-05-10T13:29:24;2.08;;;1.42;;
34673;SDS011;20879;55.668;37.858;2023-05-10T13:31:53;2.88;;;2.15;;
34673;SDS011;20879;55.668;37.858;2023-05-10T13:34:23;2.17;;;1.40;;
34673;SDS011;20879;55.668;37.858;2023-05-10T13:36:54;5.60;;;1.80;;
34673;SDS011;20879;55.668;37.858;2023-05-10T13:39:24;2.33;;;1.40;;
34673;SDS011;20879;55.668;37.858;2023-05-10T13:42:01;4.38;;;1.40;;
34673;SDS011;20879;55.668;37.858;2023-05-10T13:44:30;3.38;;;2.00;;
34673;SDS011;20879;55.668;37.858;2023-05-10T13:47:05;2.55;;;1.80;;
34673;SDS011;20879;55.668;37.858;2023-05-10T13:49:35;2.58;;;1.63;;
34673;SDS011;20879;55.668;37.858;2023-05-10T13:52:11;3.13;;;1.83;;
34673;SDS011;20879;55.668;37.858;2023-05-10T13:54:45;3.30;;;1.90;;
34673;SDS011;20879;55.668;37.858;2023-05-10T13:57:15;4.70;;;1.35;;
34673;SDS011;20879;55.668;37.858;2023-05-10T13:59:55;2.40;;;1.60;;
34673;SDS011;20879;55.668;37.858;2023-05-10T14:02:25;2.13;;;1.42;;
34673;SDS011;20879;55.668;37.858;2023-05-10T14:04:55;3.30;;;1.58;;
34673;SDS011;20879;55.668;37.858;2023-05-10T14:07:27;2.63;;;1.52;;
34673;SDS011;20879;55.668;37.858;2023-05-10T14:09:57;3.70;;;1.50;;
34673;SDS011;20879;55.668;37.858;2023-05-10T14:12:27;2.67;;;1.40;;
34673;SDS011;20879;55.668;37.858;2023-05-10T14:14:57;2.22;;;1.77;;
34673;SDS011;20879;55.668;37.858;2023-05-10T14:17:26;2.78;;;2.00;;
34673;SDS011;20879;55.668;37.858;2023-05-10T14:20:01;2.70;;;1.65;;
34673;SDS011;20879;55.668;37.858;2023-05-10T14:22:37;4.63;;;1.83;;
34673;SDS011;20879;55.668;37.858;2023-05-10T14:25:08;5.63;;;1.90;;
34673;SDS011;20879;55.668;37.858;2023-05-10T14:27:39;3.05;;;1.52;;
34673;SDS011;20879;55.668;37.858;2023-05-10T14:30:09;3.85;;;1.58;;
34673;SDS011;20879;55.668;37.858;2023-05-10T14:32:44;2.95;;;1.65;;
34673;SDS011;20879;55.668;37.858;2023-05-10T14:35:15;2.55;;;1.55;;
34673;SDS011;20879;55.668;37.858;2023-05-10T14:37:57;2.92;;;2.00;;
34673;SDS011;20879;55.668;37.858;2023-05-10T14:40:27;7.45;;;2.10;;
34673;SDS011;20879;55.668;37.858;2023-05-10T14:42:56;6.03;;;1.90;;
34673;SDS011;20879;55.668;37.858;2023-05-10T14:45:26;5.03;;;1.63;;
34673;SDS011;20879;55.668;37.858;2023-05-10T14:47:55;3.80;;;1.60;;
34673;SDS011;20879;55.668;37.858;2023-05-10T14:50:26;2.97;;;2.05;;
34673;SDS011;20879;55.668;37.858;2023-05-10T14:53:05;3.97;;;2.42;;
34673;SDS011;20879;55.668;37.858;2023-05-10T14:55:34;2.65;;;1.75;;
34673;SDS011;20879;55.668;37.858;2023-05-10T14:58:04;8.10;;;4.20;;
34673;SDS011;20879;55.668;37.858;2023-05-10T15:00:34;7.22;;;2.53;;
34673;SDS011;20879;55.668;37.858;2023-05-10T15:03:04;3.97;;;1.65;;
34673;SDS011;20879;55.668;37.858;2023-05-10T15:05:33;4.78;;;2.08;;
34673;SDS011;20879;55.668;37.858;2023-05-10T15:08:06;3.92;;;1.90;;
34673;SDS011;20879;55.668;37.858;2023-05-10T15:10:35;2.70;;;1.95;;
34673;SDS011;20879;55.668;37.858;2023-05-10T15:13:05;4.00;;;1.67;;
34673;SDS011;20879;55.668;37.858;2023-05-10T15:15:35;4.75;;;1.85;;
34673;SDS011;20879;55.668;37.858;2023-05-10T15:18:05;3.78;;;1.60;;
34673;SDS011;20879;55.668;37.858;2023-05-10T15:20:35;5.38;;;2.40;;
34673;SDS011;20879;55.668;37.858;2023-05-10T15:23:08;5.28;;;2.50;;
34673;SDS011;20879;55.668;37.858;2023-05-10T15:25:37;5.05;;;2.20;;
34673;SDS011;20879;55.668;37.858;2023-05-10T15:30:43;6.45;;;2.05;;
34673;SDS011;20879;55.668;37.858;2023-05-10T15:33:13;3.55;;;2.03;;
34673;SDS011;20879;55.668;37.858;2023-05-10T15:35:43;4.90;;;2.10;;
34673;SDS011;20879;55.668;37.858;2023-05-10T15:38:20;2.80;;;2.00;;
34673;SDS011;20879;55.668;37.858;2023-05-10T15:40:55;6.28;;;2.33;;
34673;SDS011;20879;55.668;37.858;2023-05-10T15:43:25;3.90;;;2.38;;
34673;SDS011;20879;55.668;37.858;2023-05-10T15:45:55;4.72;;;1.60;;
34673;SDS011;20879;55.668;37.858;2023-05-10T15:48:30;2.88;;;1.60;;